Terminal Aerodrome Forecast
Issued by NWS Green Bay, WI

Home | Current Version | Previous Version | Text Only | Print | Product List | Glossary Off
Versions: 1 2 3 4 5 6 7 8 9 10 11 12 13 14 15 16 17 18 19

000
FTUS43 KGRB 281134
TAFGRB
TAF
KGRB 281134Z 2812/2912 05007KT P6SM VCSH SCT006 BKN040
      TEMPO 2812/2816 5SM -RA BR BKN006 BKN012
     FM281600 05009G15KT P6SM VCSH SCT008 BKN020
     FM282000 04010KT P6SM FEW020 BKN050
     FM290400 03007KT P6SM SCT060 BKN100=

USA.gov is the U.S. government's official web portal to all federal, state and local government web resources and services.